Time;durP1;ratioP1;P1;durP2;ratioP2;P2;SDS_P1;SDS_P2;PMS_P1;PMS_P2;Temp;Humidity;BMP_temperature;BMP_pressure;BME280_temperature;BME280_humidity;BME280_pressure;Samples;Min_cycle;Max_cycle;Signal;HPM_P1;HPM_P2
2022/11/05 00:09:33;;;;;;;0.43;0.43;;;5.00;99.90;5.50;96113.00;;;;5090555;28;20198;-67
2022/11/05 00:18:42;;;;;;;4.43;0.50;;;4.90;99.90;6.00;96087.00;;;;5075644;28;20286;-67
2022/11/05 00:27:47;;;;;;;0.83;0.57;;;5.10;99.90;6.20;96090.00;;;;5087083;28;20517;-67
2022/11/05 00:30:35;;;;;;;0.53;0.43;;;5.20;99.90;6.30;96094.00;;;;5090710;28;20598;-67
2022/11/05 00:33:24;;;;;;;0.60;0.60;;;5.20;99.90;6.20;96093.00;;;;5096525;28;20188;-67
2022/11/05 00:36:13;;;;;;;0.83;0.60;;;5.20;99.90;6.10;96093.00;;;;5088168;28;21019;-67
2022/11/05 00:39:01;;;;;;;0.90;0.90;;;5.20;99.90;6.20;96113.00;;;;5088139;28;20421;-67
2022/11/05 00:45:03;;;;;;;1.87;0.80;;;5.20;99.90;6.40;96126.00;;;;5086811;28;20284;-66
2022/11/05 00:50:58;;;;;;;0.80;0.67;;;5.20;99.90;6.20;96133.00;;;;5083137;28;20245;-67
2022/11/05 00:53:46;;;;;;;1.07;0.90;;;5.20;99.90;6.40;96136.00;;;;5085738;28;20207;-67
2022/11/05 00:56:35;;;;;;;0.60;0.60;;;5.30;99.90;6.60;96146.00;;;;5086690;28;20654;-66
2022/11/05 00:59:25;;;;;;;2.13;0.83;;;5.30;99.90;6.70;96140.00;;;;5074787;28;20231;-67
2022/11/05 01:02:14;;;;;;;1.57;0.70;;;5.40;99.90;6.80;96128.00;;;;5083658;28;20207;-67
2022/11/05 01:05:02;;;;;;;2.93;1.97;;;5.40;99.90;6.90;96120.00;;;;5084158;28;20207;-67
2022/11/05 01:07:52;;;;;;;1.23;0.77;;;5.60;99.90;7.00;96124.00;;;;5089673;28;20207;-67
2022/11/05 01:10:42;;;;;;;0.63;0.63;;;5.60;99.90;7.20;96127.00;;;;5080964;28;20196;-67
2022/11/05 01:13:31;;;;;;;0.60;0.57;;;5.70;99.90;7.30;96135.00;;;;5080040;28;20241;-67
2022/11/05 01:16:21;;;;;;;0.80;0.80;;;5.80;99.90;7.20;96148.00;;;;5080565;28;20237;-67
2022/11/05 01:19:11;;;;;;;0.57;0.53;;;5.90;99.90;7.30;96150.00;;;;5087428;28;20195;-66
2022/11/05 01:21:59;;;;;;;0.80;0.80;;;6.00;99.90;7.50;96149.00;;;;5089561;28;20734;-66
2022/11/05 01:24:48;;;;;;;0.80;0.80;;;6.00;99.90;7.60;96144.00;;;;5077296;28;20350;-67
2022/11/05 01:27:38;;;;;;;0.80;0.60;;;6.20;99.90;7.70;96145.00;;;;5085620;28;20254;-66
2022/11/05 01:30:26;;;;;;;0.60;0.60;;;6.30;99.90;7.70;96148.00;;;;5079230;28;20317;-67
2022/11/05 01:33:16;;;;;;;0.67;0.60;;;6.40;99.90;7.80;96154.00;;;;5085230;28;20628;-67
2022/11/05 01:36:06;;;;;;;0.70;0.70;;;6.40;99.90;7.70;96163.00;;;;5079477;28;20220;-66
2022/11/05 01:38:54;;;;;;;0.77;0.67;;;6.40;99.90;7.70;96161.00;;;;5077605;28;20228;-67
2022/11/05 01:41:43;;;;;;;0.70;0.70;;;6.50;99.90;7.70;96158.00;;;;5083206;28;20210;-67
2022/11/05 01:44:59;;;;;;;1.33;0.80;;;6.50;99.90;7.90;96159.00;;;;5089295;28;20191;-66
2022/11/05 01:48:03;;;;;;;0.70;0.70;;;6.40;99.90;7.90;96162.00;;;;5083154;28;20215;-67
2022/11/05 01:50:59;;;;;;;0.70;0.60;;;6.60;99.90;7.90;96152.00;;;;5075775;28;20224;-67
2022/11/05 01:53:52;;;;;;;0.70;0.70;;;6.60;99.90;7.80;96145.00;;;;5085130;28;20191;-67
2022/11/05 01:56:46;;;;;;;1.03;0.77;;;6.60;99.90;7.80;96151.00;;;;5077276;28;20306;-67
2022/11/05 01:59:39;;;;;;;1.33;0.80;;;6.60;99.90;7.80;96146.00;;;;5067407;28;20250;-66
2022/11/05 02:02:31;;;;;;;2.70;0.90;;;6.60;99.90;7.70;96139.00;;;;5086641;28;20246;-67
2022/11/05 02:05:19;;;;;;;0.87;0.63;;;6.60;99.90;7.80;96146.00;;;;5089329;28;20235;-66
2022/11/05 02:08:17;;;;;;;0.90;0.70;;;6.50;99.90;7.80;96138.00;;;;5089092;28;20211;-66
2022/11/05 02:11:06;;;;;;;0.77;0.77;;;6.50;99.90;7.80;96135.00;;;;5074439;28;20908;-67
2022/11/05 02:13:55;;;;;;;1.40;0.83;;;6.50;99.90;7.90;96130.00;;;;5082795;28;20195;-67
2022/11/05 02:16:50;;;;;;;0.60;0.60;;;6.60;99.90;7.90;96142.00;;;;5084097;28;20291;-67
2022/11/05 02:20:25;;;;;;;0.80;0.80;;;6.60;99.90;7.90;96139.00;;;;5083188;28;20288;-66
2022/11/05 02:23:59;;;;;;;2.50;1.00;;;6.60;99.90;7.90;96140.00;;;;5079065;28;20195;-67
2022/11/05 02:27:07;;;;;;;0.87;0.83;;;6.60;99.90;7.90;96144.00;;;;5085889;28;20276;-67
2022/11/05 02:30:28;;;;;;;0.67;0.60;;;6.60;99.90;7.90;96133.00;;;;5087379;28;20256;-67
2022/11/05 02:33:35;;;;;;;0.67;0.67;;;6.60;99.90;7.80;96141.00;;;;5080031;28;20244;-66
2022/11/05 02:36:36;;;;;;;0.50;0.50;;;6.60;99.90;7.80;96142.00;;;;5080261;28;20230;-66
2022/11/05 02:39:39;;;;;;;3.73;0.87;;;6.60;99.90;7.80;96135.00;;;;5081143;28;20234;-66
2022/11/05 02:42:36;;;;;;;0.83;0.83;;;6.60;99.90;7.80;96145.00;;;;5089115;28;20195;-67
2022/11/05 02:45:40;;;;;;;0.50;0.50;;;6.60;99.90;7.80;96146.00;;;;5085179;28;20751;-67
2022/11/05 02:48:38;;;;;;;0.93;0.60;;;6.50;99.90;7.80;96146.00;;;;5086094;28;20214;-67
2022/11/05 02:51:35;;;;;;;0.50;0.47;;;6.50;99.90;7.80;96145.00;;;;5086188;28;20245;-66
2022/11/05 02:54:31;;;;;;;0.80;0.80;;;6.50;99.90;7.70;96139.00;;;;5086423;28;20337;-67
2022/11/05 02:57:21;;;;;;;0.90;0.73;;;6.50;99.90;7.90;96144.00;;;;5078830;28;20219;-67
2022/11/05 03:00:45;;;;;;;0.47;0.47;;;6.50;99.90;8.00;96145.00;;;;5078583;28;20199;-67
2022/11/05 03:03:37;;;;;;;1.00;0.90;;;6.50;99.90;7.90;96142.00;;;;5080767;28;20319;-67
2022/11/05 03:07:08;;;;;;;1.20;0.77;;;6.60;99.90;7.90;96150.00;;;;5089101;28;20226;-67
2022/11/05 03:10:22;;;;;;;0.77;0.50;;;6.60;99.90;7.90;96150.00;;;;5088799;28;20199;-66
2022/11/05 03:13:18;;;;;;;3.83;0.73;;;6.60;99.90;7.90;96147.00;;;;5089267;28;20203;-67
2022/11/05 03:16:18;;;;;;;0.60;0.60;;;6.60;99.90;8.00;96148.00;;;;5090591;28;20353;-67
2022/11/05 03:19:15;;;;;;;1.80;0.70;;;6.60;99.90;8.00;96149.00;;;;5088532;28;20191;-67
2022/11/05 03:22:12;;;;;;;3.47;0.80;;;6.70;99.90;8.10;96145.00;;;;5085096;28;20203;-67
2022/11/05 03:25:08;;;;;;;1.17;0.87;;;6.70;99.90;8.10;96140.00;;;;5086628;28;20200;-67
2022/11/05 03:28:04;;;;;;;0.87;0.60;;;6.70;99.90;8.10;96144.00;;;;5088624;28;20302;-67
2022/11/05 03:30:56;;;;;;;0.53;0.53;;;6.80;99.90;8.10;96147.00;;;;5077894;28;20223;-68
2022/11/05 03:33:48;;;;;;;0.60;0.60;;;6.80;99.90;8.10;96145.00;;;;5088978;28;20250;-67
2022/11/05 03:36:42;;;;;;;0.80;0.80;;;6.80;99.90;8.00;96145.00;;;;5086668;28;20302;-67
2022/11/05 03:39:35;;;;;;;1.13;0.93;;;6.80;99.90;8.00;96149.00;;;;5091065;28;20202;-67
2022/11/05 03:42:29;;;;;;;0.63;0.60;;;6.80;99.90;8.00;96141.00;;;;5090059;28;20195;-67
2022/11/05 03:45:22;;;;;;;0.77;0.60;;;6.70;99.90;8.20;96138.00;;;;5088277;28;20276;-68
2022/11/05 03:48:12;;;;;;;1.63;0.50;;;6.80;99.90;8.20;96144.00;;;;5089773;28;20222;-67
2022/11/05 03:51:11;;;;;;;0.60;0.60;;;6.80;99.90;8.20;96148.00;;;;5087294;28;20199;-68
2022/11/05 03:54:02;;;;;;;2.00;1.13;;;6.90;99.90;8.20;96155.00;;;;5086438;28;20278;-68
2022/11/05 03:57:02;;;;;;;0.70;0.70;;;6.90;99.90;8.10;96170.00;;;;5084194;28;20859;-68
2022/11/05 03:59:51;;;;;;;0.77;0.63;;;6.90;99.90;8.00;96172.00;;;;5091122;28;20727;-67
2022/11/05 04:02:41;;;;;;;0.93;0.60;;;6.80;99.90;8.10;96174.00;;;;5090341;28;20218;-67
2022/11/05 04:05:30;;;;;;;0.77;0.77;;;6.90;99.90;8.10;96170.00;;;;5082646;28;20238;-68
2022/11/05 04:14:33;;;;;;;0.67;0.67;;;6.80;99.90;8.00;96155.00;;;;5078418;28;20200;-67
2022/11/05 04:17:22;;;;;;;0.50;0.50;;;6.80;99.90;8.00;96167.00;;;;5072018;28;20709;-67
2022/11/05 04:26:24;;;;;;;0.80;0.80;;;6.70;99.90;8.00;96205.00;;;;5075790;28;20641;-67
2022/11/05 04:32:19;;;;;;;1.03;0.80;;;6.80;99.90;8.10;96203.00;;;;5089699;28;20256;-67
2022/11/05 04:35:08;;;;;;;0.50;0.50;;;6.80;99.90;8.10;96206.00;;;;5078632;28;20219;-67
2022/11/05 04:37:56;;;;;;;1.33;0.73;;;6.80;99.90;8.10;96199.00;;;;5085123;28;20249;-67
2022/11/05 04:40:47;;;;;;;0.67;0.60;;;6.70;99.90;8.00;96209.00;;;;5080204;28;20199;-67
2022/11/05 04:43:37;;;;;;;0.77;0.70;;;6.70;99.90;7.90;96201.00;;;;5090121;28;20210;-67
2022/11/05 04:46:26;;;;;;;0.43;0.43;;;6.70;99.90;8.00;96215.00;;;;5091093;28;20277;-67
2022/11/05 04:49:15;;;;;;;0.70;0.60;;;6.70;99.90;8.10;96219.00;;;;5089646;28;20211;-67
2022/11/05 04:52:03;;;;;;;0.50;0.50;;;6.70;99.90;8.10;96235.00;;;;5092106;28;20196;-67
2022/11/05 04:54:52;;;;;;;0.97;0.50;;;6.70;99.90;8.10;96249.00;;;;5085646;28;20749;-67
2022/11/05 04:57:41;;;;;;;2.43;0.70;;;6.80;99.90;8.10;96253.00;;;;5083142;28;20195;-67
2022/11/05 05:00:31;;;;;;;0.40;0.40;;;6.80;99.90;8.10;96256.00;;;;5079630;28;20207;-67
2022/11/05 05:03:19;;;;;;;0.87;0.83;;;6.80;99.90;8.10;96247.00;;;;5089885;28;20560;-67
2022/11/05 05:06:09;;;;;;;0.70;0.50;;;6.80;99.90;8.10;96255.00;;;;5079482;28;20938;-67
2022/11/05 05:08:58;;;;;;;1.07;0.50;;;6.70;99.90;8.10;96267.00;;;;5088812;28;20293;-67
2022/11/05 05:11:46;;;;;;;0.50;0.50;;;6.80;99.90;8.20;96262.00;;;;5081314;28;20207;-67
2022/11/05 05:14:35;;;;;;;2.93;0.73;;;6.80;99.90;8.10;96270.00;;;;5090723;28;20313;-67
2022/11/05 05:17:25;;;;;;;0.70;0.70;;;6.80;99.90;8.20;96270.00;;;;5089399;28;20272;-67
2022/11/05 05:23:25;;;;;;;1.10;1.00;;;6.80;99.90;8.20;96267.00;;;;5025052;28;20261;-67
2022/11/05 05:26:14;;;;;;;0.60;0.60;;;6.80;99.90;8.20;96274.00;;;;5084941;28;20211;-68
2022/11/05 05:29:03;;;;;;;0.60;0.60;;;6.80;99.90;8.20;96272.00;;;;5087452;28;20222;-67
2022/11/05 05:31:52;;;;;;;0.40;0.40;;;6.80;99.90;8.20;96269.00;;;;5088026;28;20717;-67
2022/11/05 05:34:42;;;;;;;0.50;0.50;;;6.90;99.90;8.20;96276.00;;;;5078472;28;20285;-67
2022/11/05 05:37:30;;;;;;;0.60;0.57;;;6.90;99.90;8.20;96268.00;;;;5078059;28;20195;-67
2022/11/05 05:40:19;;;;;;;0.60;0.60;;;6.90;99.90;8.10;96284.00;;;;5085009;28;20697;-67
2022/11/05 05:43:08;;;;;;;0.70;0.40;;;6.80;99.90;8.10;96281.00;;;;5089814;28;20199;-67
2022/11/05 05:45:57;;;;;;;0.60;0.60;;;6.90;99.90;8.20;96290.00;;;;5079069;28;20226;-68
2022/11/05 05:48:50;;;;;;;1.23;1.13;;;6.80;99.90;8.20;96304.00;;;;5087827;28;20384;-67
2022/11/05 05:51:40;;;;;;;0.87;0.77;;;6.90;99.90;8.20;96304.00;;;;5085543;28;20325;-68
2022/11/05 05:54:29;;;;;;;0.70;0.70;;;6.90;99.90;8.20;96311.00;;;;5087826;28;20199;-68
2022/11/05 05:57:19;;;;;;;1.50;0.60;;;6.90;99.90;8.20;96316.00;;;;5088773;28;20203;-67
2022/11/05 06:00:10;;;;;;;2.10;0.70;;;6.90;99.90;8.20;96315.00;;;;5089865;28;20636;-67
2022/11/05 06:02:59;;;;;;;0.50;0.50;;;6.90;99.90;8.30;96316.00;;;;5089879;28;20617;-68
2022/11/05 06:05:48;;;;;;;0.60;0.60;;;6.90;99.90;8.30;96307.00;;;;5088040;28;20323;-68
2022/11/05 06:08:38;;;;;;;2.03;0.67;;;6.90;99.90;8.30;96305.00;;;;5077652;28;20308;-67
2022/11/05 06:11:27;;;;;;;0.90;0.90;;;6.90;99.90;8.20;96309.00;;;;5076711;28;20203;-67
2022/11/05 06:14:16;;;;;;;2.17;0.80;;;7.00;99.90;8.40;96310.00;;;;5089171;28;20192;-67
2022/11/05 06:17:06;;;;;;;1.20;1.10;;;7.00;99.90;8.40;96310.00;;;;5084981;28;20218;-67
2022/11/05 06:19:55;;;;;;;0.87;0.87;;;7.00;99.90;8.40;96317.00;;;;5083929;28;20292;-67
2022/11/05 06:22:43;;;;;;;0.93;0.63;;;7.00;99.90;8.50;96328.00;;;;5086110;28;20269;-67
2022/11/05 06:25:34;;;;;;;0.80;0.80;;;7.10;99.90;8.60;96325.00;;;;5086153;28;20294;-67
2022/11/05 06:28:26;;;;;;;6.00;0.70;;;7.10;99.90;8.60;96319.00;;;;5085015;28;20604;-67
2022/11/05 06:31:15;;;;;;;0.93;0.73;;;7.20;99.90;8.70;96329.00;;;;5087035;28;20646;-67
2022/11/05 06:34:04;;;;;;;3.27;1.03;;;7.20;99.90;8.70;96328.00;;;;5088417;28;20689;-67
2022/11/05 06:36:53;;;;;;;0.60;0.60;;;7.30;99.90;8.80;96329.00;;;;5083078;28;20226;-67
2022/11/05 06:39:41;;;;;;;0.90;0.87;;;7.30;99.90;8.90;96338.00;;;;5080329;28;20191;-67
2022/11/05 06:42:32;;;;;;;0.60;0.60;;;7.40;99.90;8.90;96334.00;;;;5077804;28;20231;-67
2022/11/05 06:45:21;;;;;;;2.07;1.10;;;7.50;99.90;9.00;96337.00;;;;5093889;28;20230;-67
2022/11/05 06:48:10;;;;;;;1.17;0.80;;;7.50;99.90;9.10;96345.00;;;;5087196;28;20308;-67
2022/11/05 06:50:59;;;;;;;1.20;1.10;;;7.60;99.90;9.20;96340.00;;;;5093115;28;20195;-67
2022/11/05 06:53:47;;;;;;;0.70;0.70;;;7.70;99.90;9.30;96354.00;;;;5086143;28;20202;-67
2022/11/05 06:56:36;;;;;;;0.57;0.57;;;7.70;99.90;9.40;96348.00;;;;5069198;28;20222;-67
2022/11/05 06:59:26;;;;;;;2.83;1.37;;;7.80;99.90;9.50;96377.00;;;;5083901;28;20438;-67
2022/11/05 07:02:16;;;;;;;0.80;0.80;;;7.90;99.90;9.60;96374.00;;;;5078581;28;20198;-67
2022/11/05 07:05:09;;;;;;;0.80;0.80;;;8.00;99.90;9.70;96383.00;;;;5080167;28;20768;-68
2022/11/05 07:07:58;;;;;;;0.93;0.70;;;8.10;99.90;9.70;96382.00;;;;5086851;28;20273;-67
2022/11/05 07:10:47;;;;;;;1.17;1.07;;;8.20;99.90;9.70;96386.00;;;;5083832;28;20274;-67
2022/11/05 07:13:36;;;;;;;0.70;0.70;;;8.20;99.90;9.90;96393.00;;;;5083862;28;20200;-67
2022/11/05 07:16:26;;;;;;;0.67;0.60;;;8.30;99.90;10.00;96398.00;;;;5086988;28;20219;-67
2022/11/05 07:19:15;;;;;;;1.60;0.90;;;8.30;99.90;10.10;96389.00;;;;5077226;28;21043;-67
2022/11/05 07:22:03;;;;;;;1.03;0.90;;;8.50;99.90;10.30;96369.00;;;;5088272;28;20199;-67
2022/11/05 07:24:52;;;;;;;1.67;1.00;;;8.60;99.90;10.40;96374.00;;;;5089970;28;20207;-67
2022/11/05 07:27:41;;;;;;;1.40;0.80;;;8.70;99.90;10.50;96381.00;;;;5089711;28;20266;-67
2022/11/05 07:30:32;;;;;;;0.60;0.60;;;8.90;99.90;10.80;96378.00;;;;5090579;28;20644;-67
2022/11/05 07:33:22;;;;;;;0.80;0.80;;;9.00;99.90;10.90;96369.00;;;;5084994;28;20207;-68
2022/11/05 07:36:11;;;;;;;2.73;0.93;;;9.20;99.90;11.10;96357.00;;;;5084321;28;20268;-67
2022/11/05 07:38:59;;;;;;;1.03;0.80;;;9.30;99.90;11.20;96371.00;;;;5081862;28;20212;-67
2022/11/05 07:41:48;;;;;;;1.50;0.70;;;9.40;99.90;11.30;96378.00;;;;5086575;28;20229;-67
2022/11/05 07:44:37;;;;;;;1.13;0.60;;;9.50;99.90;11.40;96377.00;;;;5086463;28;20195;-67
2022/11/05 07:47:25;;;;;;;0.60;0.60;;;9.60;99.90;11.40;96378.00;;;;5075572;28;20322;-67
2022/11/05 07:50:16;;;;;;;0.93;0.63;;;9.70;99.90;11.60;96381.00;;;;5073222;28;20310;-67
2022/11/05 07:53:07;;;;;;;0.50;0.40;;;9.80;99.90;11.50;96376.00;;;;5089022;28;20635;-64
2022/11/05 07:55:57;;;;;;;0.90;0.60;;;9.90;99.90;11.70;96388.00;;;;5088168;28;20220;-67
2022/11/05 07:58:46;;;;;;;1.63;0.60;;;10.00;99.90;11.70;96385.00;;;;5088227;28;20286;-67
2022/11/05 08:01:35;;;;;;;1.13;1.03;;;10.10;99.90;11.90;96392.00;;;;5071424;28;20242;-67
2022/11/05 08:04:23;;;;;;;0.50;0.40;;;10.20;99.90;11.90;96389.00;;;;5085963;28;20278;-67
2022/11/05 08:07:13;;;;;;;2.83;0.70;;;10.30;99.90;11.90;96393.00;;;;5087099;28;20685;-67
2022/11/05 08:10:03;;;;;;;0.77;0.77;;;10.30;99.90;12.00;96393.00;;;;5081768;28;20212;-67
2022/11/05 08:12:53;;;;;;;0.60;0.57;;;10.40;99.90;12.10;96394.00;;;;5088408;28;20192;-67
2022/11/05 08:15:42;;;;;;;0.57;0.57;;;10.40;99.90;12.00;96395.00;;;;5090642;28;20757;-67
2022/11/05 08:18:32;;;;;;;0.60;0.60;;;10.50;99.90;12.20;96392.00;;;;5091249;28;20289;-67
2022/11/05 08:21:21;;;;;;;1.43;0.43;;;10.50;99.90;12.20;96399.00;;;;5087647;28;20207;-67
2022/11/05 08:24:11;;;;;;;0.40;0.40;;;10.60;99.90;12.40;96399.00;;;;5091399;28;20280;-67
2022/11/05 08:27:00;;;;;;;0.60;0.60;;;10.70;99.90;12.50;96402.00;;;;5091541;28;20222;-67
2022/11/05 08:29:49;;;;;;;0.50;0.37;;;10.80;99.90;12.60;96406.00;;;;5078265;28;20296;-67
2022/11/05 08:32:38;;;;;;;0.70;0.40;;;10.80;99.90;12.50;96396.00;;;;5084596;28;20199;-67
2022/11/05 08:35:28;;;;;;;3.47;0.60;;;10.90;99.90;12.50;96399.00;;;;5080590;28;20307;-67
2022/11/05 08:38:19;;;;;;;1.30;0.63;;;10.90;99.90;12.70;96406.00;;;;5090915;28;20685;-67
2022/11/05 08:41:09;;;;;;;0.97;0.83;;;11.00;99.90;12.90;96411.00;;;;5083284;28;20312;-68
2022/11/05 08:43:58;;;;;;;2.20;0.80;;;11.10;99.90;12.90;96415.00;;;;5087796;28;20195;-67
2022/11/05 08:46:47;;;;;;;0.73;0.60;;;11.10;99.90;12.90;96406.00;;;;5086657;28;20215;-67
2022/11/05 08:49:35;;;;;;;0.40;0.40;;;11.20;99.90;12.90;96411.00;;;;5081393;28;20230;-67
2022/11/05 08:52:24;;;;;;;0.73;0.73;;;11.30;99.90;12.90;96397.00;;;;5090505;28;20280;-67
2022/11/05 08:55:17;;;;;;;0.77;0.60;;;11.30;99.90;13.10;96407.00;;;;5080415;28;20257;-67
2022/11/05 08:58:11;;;;;;;0.87;0.47;;;11.30;99.90;13.10;96407.00;;;;5080594;28;20696;-67
2022/11/05 09:00:59;;;;;;;3.23;0.50;;;11.40;99.90;12.80;96404.00;;;;5079302;28;20654;-67
2022/11/05 09:03:52;;;;;;;0.93;0.60;;;11.40;99.90;12.90;96406.00;;;;5081576;28;20241;-66
2022/11/05 09:06:41;;;;;;;2.37;0.50;;;11.40;99.90;13.10;96411.00;;;;5084593;28;20312;-66
2022/11/05 09:09:29;;;;;;;0.40;0.40;;;11.40;99.90;13.20;96407.00;;;;5083842;28;20289;-66
2022/11/05 09:12:18;;;;;;;4.10;0.93;;;11.50;99.90;13.30;96408.00;;;;5081141;28;20215;-67
2022/11/05 09:15:10;;;;;;;0.50;0.50;;;11.50;99.90;13.30;96415.00;;;;5085380;28;20211;-67
2022/11/05 09:17:59;;;;;;;0.53;0.53;;;11.60;99.90;12.90;96403.00;;;;5084644;28;20276;-67
2022/11/05 09:20:48;;;;;;;0.40;0.40;;;11.60;99.90;13.10;96427.00;;;;5092623;28;20687;-67
2022/11/05 09:23:36;;;;;;;2.10;0.67;;;11.60;99.90;13.30;96418.00;;;;5090107;28;20244;-67
2022/11/05 09:26:25;;;;;;;1.17;0.80;;;11.70;99.90;13.40;96419.00;;;;5089553;28;20345;-67
2022/11/05 09:29:14;;;;;;;2.00;0.50;;;11.70;99.90;13.30;96427.00;;;;5087200;28;21141;-67
2022/11/05 09:32:05;;;;;;;1.67;0.50;;;11.80;99.90;13.50;96438.00;;;;5085588;28;20622;-66
2022/11/05 09:34:53;;;;;;;0.50;0.50;;;11.80;99.90;13.00;96448.00;;;;5092361;28;20215;-67
2022/11/05 09:37:42;;;;;;;1.33;0.60;;;11.80;99.90;13.20;96445.00;;;;5087989;28;20678;-66
2022/11/05 09:40:37;;;;;;;0.73;0.43;;;11.80;99.90;13.50;96447.00;;;;5079624;28;20218;-66
2022/11/05 09:43:32;;;;;;;0.43;0.43;;;11.90;99.90;13.40;96447.00;;;;5088377;28;20260;-66
2022/11/05 09:46:26;;;;;;;1.10;0.50;;;11.90;99.90;13.60;96444.00;;;;5084595;28;20662;-67
2022/11/05 09:49:25;;;;;;;0.40;0.40;;;11.90;99.90;13.70;96447.00;;;;5086023;28;20777;-67
2022/11/05 09:52:20;;;;;;;0.50;0.50;;;12.00;99.90;13.90;96438.00;;;;5086207;28;20278;-67
2022/11/05 09:55:22;;;;;;;2.43;0.87;;;12.10;99.90;13.90;96445.00;;;;5081273;28;20222;-67
2022/11/05 09:58:17;;;;;;;4.60;0.50;;;12.20;99.90;13.80;96446.00;;;;5078962;28;20213;-67
2022/11/05 10:01:14;;;;;;;1.07;0.60;;;12.20;99.90;14.10;96453.00;;;;5086616;28;21127;-67
2022/11/05 10:04:09;;;;;;;0.60;0.50;;;12.30;99.90;13.80;96440.00;;;;5074291;28;20613;-67
2022/11/05 10:07:02;;;;;;;0.60;0.60;;;12.40;99.90;13.90;96448.00;;;;5079021;28;20296;-66
2022/11/05 10:09:57;;;;;;;0.80;0.30;;;12.40;99.90;14.10;96448.00;;;;5085002;28;20220;-67
2022/11/05 10:12:53;;;;;;;1.13;0.50;;;12.40;99.90;13.70;96456.00;;;;5078414;28;20919;-67
2022/11/05 10:15:54;;;;;;;0.50;0.43;;;12.50;99.90;14.10;96449.00;;;;5085623;28;20560;-67
2022/11/05 10:18:48;;;;;;;0.60;0.60;;;12.50;99.90;14.20;96452.00;;;;5083685;28;20206;-67
2022/11/05 10:21:37;;;;;;;1.90;1.20;;;12.60;99.90;14.60;96459.00;;;;5086105;28;20264;-67
2022/11/05 10:24:50;;;;;;;0.50;0.50;;;12.70;99.90;14.40;96460.00;;;;5081177;28;20195;-67
2022/11/05 10:27:38;;;;;;;0.80;0.80;;;12.80;99.90;14.10;96465.00;;;;5087933;28;20206;-67
2022/11/05 10:30:27;;;;;;;2.00;0.70;;;12.80;99.90;14.10;96457.00;;;;5085769;28;20273;-64
2022/11/05 10:33:27;;;;;;;0.47;0.47;;;12.80;99.90;14.40;96461.00;;;;5086340;28;20191;-66
2022/11/05 10:36:22;;;;;;;1.23;1.13;;;12.80;99.90;14.50;96463.00;;;;5082746;28;20227;-67
2022/11/05 10:39:14;;;;;;;0.57;0.57;;;12.80;99.90;14.80;96450.00;;;;5088648;28;20195;-67
2022/11/05 10:42:33;;;;;;;0.40;0.40;;;12.90;99.90;14.30;96453.00;;;;5075995;28;20224;-67
2022/11/05 10:45:34;;;;;;;0.70;0.50;;;13.00;99.90;14.90;96463.00;;;;5082214;28;20219;-66
2022/11/05 10:48:45;;;;;;;0.40;0.40;;;13.10;99.90;14.60;96464.00;;;;5080855;28;20343;-67
2022/11/05 10:51:34;;;;;;;0.60;0.47;;;13.10;99.90;14.40;96468.00;;;;5084482;28;20215;-66
2022/11/05 10:54:30;;;;;;;0.90;0.47;;;13.10;99.30;14.60;96459.00;;;;5081880;28;20767;-66
2022/11/05 10:57:37;;;;;;;0.40;0.40;;;13.10;99.90;14.70;96461.00;;;;5083051;28;20241;-66
2022/11/05 11:00:28;;;;;;;0.37;0.30;;;13.10;99.90;14.50;96468.00;;;;5072893;28;20275;-66
2022/11/05 11:03:37;;;;;;;0.30;0.30;;;13.10;99.40;15.20;96492.00;;;;5086140;28;20364;-66
2022/11/05 11:06:28;;;;;;;1.20;0.50;;;13.20;99.90;14.90;96466.00;;;;5076087;28;20239;-67
2022/11/05 11:09:25;;;;;;;0.20;0.20;;;13.30;99.50;14.70;96471.00;;;;5084465;28;20207;-67
2022/11/05 11:12:18;;;;;;;0.70;0.30;;;13.40;98.50;15.30;96462.00;;;;5081102;28;20265;-67
2022/11/05 11:15:26;;;;;;;1.23;0.63;;;13.50;99.00;15.50;96479.00;;;;5082968;28;20218;-66
2022/11/05 11:18:29;;;;;;;1.67;1.03;;;13.60;99.10;15.50;96489.00;;;;5085717;28;20202;-67
2022/11/05 11:21:22;;;;;;;2.40;0.60;;;13.70;99.60;15.20;96504.00;;;;5080857;28;20231;-67
2022/11/05 11:24:22;;;;;;;0.70;0.40;;;13.70;99.90;15.20;96486.00;;;;5081863;28;20208;-67
2022/11/05 11:27:14;;;;;;;1.20;0.27;;;13.80;98.90;14.50;96479.00;;;;5087186;28;20219;-67
2022/11/05 11:30:06;;;;;;;0.83;0.50;;;13.70;96.50;15.00;96500.00;;;;5089844;28;20230;-67
2022/11/05 11:33:03;;;;;;;0.27;0.27;;;13.50;97.70;14.80;96489.00;;;;5086584;28;20207;-66
2022/11/05 11:35:52;;;;;;;0.20;0.20;;;13.40;96.80;15.10;96496.00;;;;5090057;28;20221;-68
2022/11/05 11:38:41;;;;;;;0.20;0.20;;;13.50;97.30;15.20;96492.00;;;;5096764;28;20226;-66
2022/11/05 11:41:35;;;;;;;1.83;0.30;;;13.50;97.60;15.00;96500.00;;;;5089576;28;20678;-66
2022/11/05 11:44:28;;;;;;;0.47;0.30;;;13.50;97.50;15.30;96493.00;;;;5090909;28;20207;-66
2022/11/05 11:47:20;;;;;;;0.43;0.27;;;13.60;97.40;15.10;96500.00;;;;5094900;28;20191;-66
2022/11/05 11:50:38;;;;;;;1.17;0.30;;;13.60;96.20;15.20;96506.00;;;;5083988;28;20234;-66
2022/11/05 11:53:34;;;;;;;0.40;0.40;;;13.60;96.10;15.40;96511.00;;;;5089298;28;20235;-66
2022/11/05 11:56:23;;;;;;;3.30;0.50;;;13.70;96.70;15.30;96509.00;;;;5089701;28;20251;-66
2022/11/05 11:59:23;;;;;;;2.57;0.40;;;13.70;96.30;14.90;96507.00;;;;5092419;28;20209;-67
2022/11/05 12:03:09;;;;;;;0.33;0.33;;;13.70;94.00;15.20;96518.00;;;;5091404;28;20581;-67
2022/11/05 12:06:09;;;;;;;0.30;0.30;;;13.60;95.50;15.20;96515.00;;;;5092203;28;20227;-68
2022/11/05 12:09:07;;;;;;;0.93;0.87;;;13.60;95.20;15.10;96517.00;;;;5088896;28;20203;-68
2022/11/05 12:12:03;;;;;;;0.20;0.20;;;13.60;96.20;14.30;96508.00;;;;5084235;28;20243;-68
2022/11/05 12:14:57;;;;;;;0.50;0.50;;;13.40;94.40;14.80;96503.00;;;;5081091;28;20240;-67
2022/11/05 12:17:52;;;;;;;0.90;0.90;;;13.40;95.40;14.70;96508.00;;;;5087468;28;20202;-67
2022/11/05 12:21:07;;;;;;;0.30;0.30;;;13.40;94.90;15.00;96510.00;;;;5086692;28;20210;-67
2022/11/05 12:24:24;;;;;;;0.50;0.50;;;13.40;95.30;14.90;96501.00;;;;5088763;28;20694;-67
2022/11/05 12:27:28;;;;;;;0.20;0.20;;;13.40;95.40;14.70;96507.00;;;;5059779;28;20677;-67
2022/11/05 12:30:19;;;;;;;0.20;0.20;;;13.40;94.80;14.50;96512.00;;;;5084339;28;20191;-67
2022/11/05 12:33:27;;;;;;;0.67;0.40;;;13.30;93.60;14.80;96501.00;;;;5090672;28;20238;-66
2022/11/05 12:36:35;;;;;;;0.53;0.30;;;13.30;94.20;14.70;96501.00;;;;5083045;28;20699;-67
2022/11/05 12:39:42;;;;;;;0.40;0.40;;;13.30;93.60;14.60;96509.00;;;;5085462;28;20251;-67
2022/11/05 12:42:48;;;;;;;0.27;0.27;;;13.30;94.00;14.30;96505.00;;;;5078951;28;20241;-66
2022/11/05 12:45:47;;;;;;;0.30;0.30;;;13.20;94.00;14.30;96497.00;;;;5080136;28;20354;-67
2022/11/05 12:48:56;;;;;;;0.40;0.40;;;13.10;93.80;14.60;96517.00;;;;5092977;28;20231;-67
2022/11/05 12:52:05;;;;;;;0.40;0.30;;;13.10;93.90;14.40;96516.00;;;;5093930;28;20258;-67
2022/11/05 12:55:04;;;;;;;0.37;0.37;;;13.10;93.50;14.50;96531.00;;;;5087080;28;20249;-67
2022/11/05 12:57:57;;;;;;;1.10;0.37;;;13.10;93.00;14.30;96520.00;;;;5079591;28;20799;-67
2022/11/05 13:00:54;;;;;;;0.63;0.50;;;13.10;93.50;14.60;96540.00;;;;5074841;28;20196;-67
2022/11/05 13:03:52;;;;;;;0.30;0.30;;;13.00;92.80;14.60;96539.00;;;;5083120;28;20261;-67
2022/11/05 13:06:45;;;;;;;0.50;0.30;;;13.00;93.10;14.60;96537.00;;;;5084008;28;20272;-67
2022/11/05 13:09:44;;;;;;;0.33;0.30;;;13.00;93.60;14.30;96541.00;;;;5080656;28;20226;-68
2022/11/05 13:12:38;;;;;;;0.53;0.40;;;13.00;92.10;14.40;96541.00;;;;5085578;28;20227;-68
2022/11/05 13:15:32;;;;;;;0.30;0.30;;;12.90;92.70;14.20;96548.00;;;;5083674;28;20234;-68
2022/11/05 13:18:26;;;;;;;0.80;0.33;;;12.90;93.00;14.20;96555.00;;;;5083170;28;20236;-67
2022/11/05 13:21:16;;;;;;;0.83;0.40;;;12.90;93.10;14.20;96553.00;;;;5080367;28;20243;-67
2022/11/05 13:24:13;;;;;;;0.40;0.40;;;12.80;93.20;14.00;96561.00;;;;5084844;28;20207;-67
2022/11/05 13:27:15;;;;;;;1.07;0.50;;;12.80;92.40;14.10;96577.00;;;;5083096;28;20222;-67
2022/11/05 13:30:07;;;;;;;0.70;0.50;;;12.70;92.30;14.20;96594.00;;;;5090455;28;20283;-67
2022/11/05 13:33:02;;;;;;;1.23;0.40;;;12.70;92.70;14.20;96590.00;;;;5094171;28;20207;-68
2022/11/05 13:39:08;;;;;;;0.50;0.37;;;12.70;92.40;13.70;96595.00;;;;5093833;28;20709;-66
2022/11/05 13:42:31;;;;;;;0.40;0.40;;;12.70;91.30;14.00;96596.00;;;;5085925;28;20204;-66
2022/11/05 13:45:48;;;;;;;2.17;0.50;;;12.60;92.20;13.80;96596.00;;;;5085960;28;20223;-67
2022/11/05 13:49:38;;;;;;;1.10;0.70;;;12.60;92.10;13.90;96597.00;;;;5080047;28;20670;-67
2022/11/05 13:52:48;;;;;;;0.70;0.50;;;12.50;91.70;14.10;96589.00;;;;5026631;28;20231;-68